sensor_id;sensor_type;location;lat;lon;timestamp;P1;durP1;ratioP1;P2;durP2;ratioP2
55053;SDS011;40954;45.668;18.980;2022-09-29T00:00:23;23.95;;;16.23;;
55053;SDS011;40954;45.668;18.980;2022-09-29T00:02:51;24.55;;;17.67;;
55053;SDS011;40954;45.668;18.980;2022-09-29T00:05:17;29.80;;;18.50;;
55053;SDS011;40954;45.668;18.980;2022-09-29T00:07:43;29.75;;;18.33;;
55053;SDS011;40954;45.668;18.980;2022-09-29T00:10:09;30.60;;;18.42;;
55053;SDS011;40954;45.668;18.980;2022-09-29T00:12:36;23.25;;;16.42;;
55053;SDS011;40954;45.668;18.980;2022-09-29T00:15:02;23.63;;;16.00;;
55053;SDS011;40954;45.668;18.980;2022-09-29T00:17:28;19.13;;;15.32;;
55053;SDS011;40954;45.668;18.980;2022-09-29T00:19:55;20.13;;;14.07;;
55053;SDS011;40954;45.668;18.980;2022-09-29T00:22:21;25.45;;;17.17;;
55053;SDS011;40954;45.668;18.980;2022-09-29T00:24:47;27.00;;;18.45;;
55053;SDS011;40954;45.668;18.980;2022-09-29T00:27:14;39.45;;;22.35;;
55053;SDS011;40954;45.668;18.980;2022-09-29T00:29:40;32.97;;;20.13;;
55053;SDS011;40954;45.668;18.980;2022-09-29T00:32:06;26.60;;;18.77;;
55053;SDS011;40954;45.668;18.980;2022-09-29T00:34:32;24.40;;;16.20;;
55053;SDS011;40954;45.668;18.980;2022-09-29T00:36:58;34.33;;;21.13;;
55053;SDS011;40954;45.668;18.980;2022-09-29T00:39:24;26.60;;;20.27;;
55053;SDS011;40954;45.668;18.980;2022-09-29T00:41:50;38.78;;;20.83;;
55053;SDS011;40954;45.668;18.980;2022-09-29T00:46:47;24.35;;;18.90;;
55053;SDS011;40954;45.668;18.980;2022-09-29T00:52:00;26.00;;;18.80;;
55053;SDS011;40954;45.668;18.980;2022-09-29T00:54:27;24.50;;;18.45;;
55053;SDS011;40954;45.668;18.980;2022-09-29T00:56:55;18.60;;;15.93;;
55053;SDS011;40954;45.668;18.980;2022-09-29T00:59:24;17.15;;;15.23;;
55053;SDS011;40954;45.668;18.980;2022-09-29T01:01:52;24.00;;;18.83;;
55053;SDS011;40954;45.668;18.980;2022-09-29T01:04:18;27.92;;;20.30;;
55053;SDS011;40954;45.668;18.980;2022-09-29T01:06:48;26.98;;;19.85;;
55053;SDS011;40954;45.668;18.980;2022-09-29T01:09:16;28.13;;;20.60;;
55053;SDS011;40954;45.668;18.980;2022-09-29T01:11:42;23.05;;;20.17;;
55053;SDS011;40954;45.668;18.980;2022-09-29T01:14:09;24.92;;;19.13;;
55053;SDS011;40954;45.668;18.980;2022-09-29T01:16:36;26.50;;;20.92;;
55053;SDS011;40954;45.668;18.980;2022-09-29T01:19:07;27.00;;;20.60;;
55053;SDS011;40954;45.668;18.980;2022-09-29T01:31:56;20.67;;;16.65;;
55053;SDS011;40954;45.668;18.980;2022-09-29T01:39:53;25.55;;;19.35;;
55053;SDS011;40954;45.668;18.980;2022-09-29T01:44:49;27.45;;;20.60;;
55053;SDS011;40954;45.668;18.980;2022-09-29T01:47:19;27.48;;;20.65;;
55053;SDS011;40954;45.668;18.980;2022-09-29T01:49:56;30.15;;;20.25;;
55053;SDS011;40954;45.668;18.980;2022-09-29T01:52:25;24.08;;;19.02;;
55053;SDS011;40954;45.668;18.980;2022-09-29T01:54:59;24.23;;;19.67;;
55053;SDS011;40954;45.668;18.980;2022-09-29T01:57:27;22.60;;;18.15;;
55053;SDS011;40954;45.668;18.980;2022-09-29T01:59:57;20.10;;;17.33;;
55053;SDS011;40954;45.668;18.980;2022-09-29T02:02:30;27.40;;;19.00;;
55053;SDS011;40954;45.668;18.980;2022-09-29T02:05:00;21.30;;;18.98;;
55053;SDS011;40954;45.668;18.980;2022-09-29T02:07:37;27.05;;;19.92;;
55053;SDS011;40954;45.668;18.980;2022-09-29T02:10:06;26.20;;;19.65;;
55053;SDS011;40954;45.668;18.980;2022-09-29T02:12:35;23.92;;;19.05;;
55053;SDS011;40954;45.668;18.980;2022-09-29T02:15:03;23.88;;;20.13;;
55053;SDS011;40954;45.668;18.980;2022-09-29T02:17:32;26.48;;;20.00;;
55053;SDS011;40954;45.668;18.980;2022-09-29T02:20:00;28.65;;;19.92;;
55053;SDS011;40954;45.668;18.980;2022-09-29T02:22:27;28.90;;;20.58;;
55053;SDS011;40954;45.668;18.980;2022-09-29T02:24:53;26.05;;;20.70;;
55053;SDS011;40954;45.668;18.980;2022-09-29T02:27:20;25.10;;;20.55;;
55053;SDS011;40954;45.668;18.980;2022-09-29T02:29:46;24.58;;;19.33;;
55053;SDS011;40954;45.668;18.980;2022-09-29T02:32:13;24.63;;;19.33;;
55053;SDS011;40954;45.668;18.980;2022-09-29T02:34:40;24.50;;;20.73;;
55053;SDS011;40954;45.668;18.980;2022-09-29T02:57:23;33.28;;;22.83;;
55053;SDS011;40954;45.668;18.980;2022-09-29T02:59:56;34.33;;;22.67;;
55053;SDS011;40954;45.668;18.980;2022-09-29T03:02:29;29.98;;;22.20;;
55053;SDS011;40954;45.668;18.980;2022-09-29T03:04:55;24.63;;;21.90;;
55053;SDS011;40954;45.668;18.980;2022-09-29T03:07:21;27.35;;;21.65;;
55053;SDS011;40954;45.668;18.980;2022-09-29T03:09:47;31.25;;;22.75;;
55053;SDS011;40954;45.668;18.980;2022-09-29T03:12:14;31.25;;;22.15;;
55053;SDS011;40954;45.668;18.980;2022-09-29T03:14:42;28.38;;;21.60;;
55053;SDS011;40954;45.668;18.980;2022-09-29T03:17:08;24.27;;;21.67;;
55053;SDS011;40954;45.668;18.980;2022-09-29T03:19:34;26.10;;;21.55;;
55053;SDS011;40954;45.668;18.980;2022-09-29T03:22:00;27.63;;;22.02;;
55053;SDS011;40954;45.668;18.980;2022-09-29T03:24:27;27.15;;;20.70;;
55053;SDS011;40954;45.668;18.980;2022-09-29T03:26:53;30.48;;;21.40;;
55053;SDS011;40954;45.668;18.980;2022-09-29T03:29:19;27.23;;;21.75;;
55053;SDS011;40954;45.668;18.980;2022-09-29T03:31:45;28.15;;;22.70;;
55053;SDS011;40954;45.668;18.980;2022-09-29T03:34:12;23.15;;;20.40;;
55053;SDS011;40954;45.668;18.980;2022-09-29T03:36:38;29.33;;;21.40;;
55053;SDS011;40954;45.668;18.980;2022-09-29T03:39:05;25.23;;;20.42;;
55053;SDS011;40954;45.668;18.980;2022-09-29T03:41:31;23.25;;;19.63;;
55053;SDS011;40954;45.668;18.980;2022-09-29T03:43:57;25.80;;;19.83;;
55053;SDS011;40954;45.668;18.980;2022-09-29T03:46:23;26.80;;;20.88;;
55053;SDS011;40954;45.668;18.980;2022-09-29T03:48:49;24.60;;;19.48;;
55053;SDS011;40954;45.668;18.980;2022-09-29T03:51:16;25.33;;;21.00;;
55053;SDS011;40954;45.668;18.980;2022-09-29T03:53:42;24.55;;;20.58;;
55053;SDS011;40954;45.668;18.980;2022-09-29T03:56:08;27.90;;;22.00;;
55053;SDS011;40954;45.668;18.980;2022-09-29T03:58:34;27.02;;;21.30;;
55053;SDS011;40954;45.668;18.980;2022-09-29T04:01:00;28.08;;;20.55;;
55053;SDS011;40954;45.668;18.980;2022-09-29T04:03:26;28.27;;;21.98;;
55053;SDS011;40954;45.668;18.980;2022-09-29T04:05:53;25.13;;;20.38;;
55053;SDS011;40954;45.668;18.980;2022-09-29T04:08:19;27.52;;;21.92;;
55053;SDS011;40954;45.668;18.980;2022-09-29T04:10:45;27.70;;;21.98;;
55053;SDS011;40954;45.668;18.980;2022-09-29T04:13:12;24.40;;;20.80;;
55053;SDS011;40954;45.668;18.980;2022-09-29T04:15:38;28.90;;;21.58;;
55053;SDS011;40954;45.668;18.980;2022-09-29T04:18:04;29.08;;;21.40;;
55053;SDS011;40954;45.668;18.980;2022-09-29T04:20:30;23.42;;;20.70;;
55053;SDS011;40954;45.668;18.980;2022-09-29T04:22:57;28.50;;;22.45;;
55053;SDS011;40954;45.668;18.980;2022-09-29T04:25:23;31.45;;;22.17;;
55053;SDS011;40954;45.668;18.980;2022-09-29T04:27:49;26.25;;;20.55;;
55053;SDS011;40954;45.668;18.980;2022-09-29T04:30:15;29.35;;;22.70;;
55053;SDS011;40954;45.668;18.980;2022-09-29T04:32:42;27.05;;;22.50;;
55053;SDS011;40954;45.668;18.980;2022-09-29T04:35:08;28.30;;;21.98;;
55053;SDS011;40954;45.668;18.980;2022-09-29T04:37:34;28.58;;;22.77;;
55053;SDS011;40954;45.668;18.980;2022-09-29T04:40:00;29.73;;;23.70;;
55053;SDS011;40954;45.668;18.980;2022-09-29T04:42:27;29.85;;;23.33;;
55053;SDS011;40954;45.668;18.980;2022-09-29T04:44:53;31.10;;;24.20;;
55053;SDS011;40954;45.668;18.980;2022-09-29T04:47:19;33.10;;;24.65;;
55053;SDS011;40954;45.668;18.980;2022-09-29T04:49:45;33.70;;;24.77;;
55053;SDS011;40954;45.668;18.980;2022-09-29T04:52:12;34.30;;;24.77;;
55053;SDS011;40954;45.668;18.980;2022-09-29T04:54:38;28.02;;;22.38;;
55053;SDS011;40954;45.668;18.980;2022-09-29T04:57:04;29.95;;;23.77;;
55053;SDS011;40954;45.668;18.980;2022-09-29T04:59:30;31.63;;;24.30;;
55053;SDS011;40954;45.668;18.980;2022-09-29T05:01:57;33.65;;;24.95;;
55053;SDS011;40954;45.668;18.980;2022-09-29T05:04:23;31.70;;;22.88;;
55053;SDS011;40954;45.668;18.980;2022-09-29T05:06:49;29.85;;;23.02;;
55053;SDS011;40954;45.668;18.980;2022-09-29T05:09:15;28.40;;;23.42;;
55053;SDS011;40954;45.668;18.980;2022-09-29T05:11:41;30.13;;;21.83;;
55053;SDS011;40954;45.668;18.980;2022-09-29T05:14:07;28.52;;;22.10;;
55053;SDS011;40954;45.668;18.980;2022-09-29T05:16:33;26.52;;;21.75;;
55053;SDS011;40954;45.668;18.980;2022-09-29T05:18:59;29.33;;;23.88;;
55053;SDS011;40954;45.668;18.980;2022-09-29T05:21:26;39.80;;;30.42;;
55053;SDS011;40954;45.668;18.980;2022-09-29T05:23:52;43.70;;;29.77;;
55053;SDS011;40954;45.668;18.980;2022-09-29T05:26:18;37.00;;;26.15;;
55053;SDS011;40954;45.668;18.980;2022-09-29T05:28:44;34.08;;;23.23;;
55053;SDS011;40954;45.668;18.980;2022-09-29T05:31:12;35.55;;;24.77;;
55053;SDS011;40954;45.668;18.980;2022-09-29T05:33:39;32.20;;;22.30;;
55053;SDS011;40954;45.668;18.980;2022-09-29T05:36:06;28.00;;;20.65;;
55053;SDS011;40954;45.668;18.980;2022-09-29T05:38:33;31.75;;;20.92;;
55053;SDS011;40954;45.668;18.980;2022-09-29T05:41:02;24.33;;;19.13;;
55053;SDS011;40954;45.668;18.980;2022-09-29T05:43:28;21.90;;;17.17;;
55053;SDS011;40954;45.668;18.980;2022-09-29T05:46:04;21.88;;;17.17;;
55053;SDS011;40954;45.668;18.980;2022-09-29T05:48:31;20.73;;;16.65;;
55053;SDS011;40954;45.668;18.980;2022-09-29T05:50:57;21.25;;;16.33;;
55053;SDS011;40954;45.668;18.980;2022-09-29T05:53:24;29.08;;;17.23;;
55053;SDS011;40954;45.668;18.980;2022-09-29T05:55:50;26.70;;;16.52;;
55053;SDS011;40954;45.668;18.980;2022-09-29T05:58:16;24.15;;;16.92;;
55053;SDS011;40954;45.668;18.980;2022-09-29T06:00:43;21.15;;;17.48;;
55053;SDS011;40954;45.668;18.980;2022-09-29T06:03:09;21.85;;;17.95;;
55053;SDS011;40954;45.668;18.980;2022-09-29T06:05:38;23.75;;;16.48;;
55053;SDS011;40954;45.668;18.980;2022-09-29T06:08:05;21.52;;;16.25;;
55053;SDS011;40954;45.668;18.980;2022-09-29T06:10:31;23.70;;;16.08;;
55053;SDS011;40954;45.668;18.980;2022-09-29T06:12:57;21.67;;;16.33;;
55053;SDS011;40954;45.668;18.980;2022-09-29T06:15:23;22.30;;;15.80;;
55053;SDS011;40954;45.668;18.980;2022-09-29T06:17:56;17.67;;;15.80;;
55053;SDS011;40954;45.668;18.980;2022-09-29T06:20:22;16.88;;;15.07;;
55053;SDS011;40954;45.668;18.980;2022-09-29T06:22:49;20.13;;;15.23;;
55053;SDS011;40954;45.668;18.980;2022-09-29T06:25:15;19.23;;;15.63;;
55053;SDS011;40954;45.668;18.980;2022-09-29T06:27:41;17.60;;;14.15;;
55053;SDS011;40954;45.668;18.980;2022-09-29T06:30:08;18.30;;;14.70;;
55053;SDS011;40954;45.668;18.980;2022-09-29T06:32:34;19.98;;;14.40;;
55053;SDS011;40954;45.668;18.980;2022-09-29T06:35:01;20.67;;;14.60;;
55053;SDS011;40954;45.668;18.980;2022-09-29T06:38:00;17.13;;;14.35;;
55053;SDS011;40954;45.668;18.980;2022-09-29T06:40:26;19.38;;;15.13;;
55053;SDS011;40954;45.668;18.980;2022-09-29T06:42:53;17.77;;;15.88;;
55053;SDS011;40954;45.668;18.980;2022-09-29T06:45:19;20.10;;;14.65;;
55053;SDS011;40954;45.668;18.980;2022-09-29T06:47:45;19.95;;;14.50;;
55053;SDS011;40954;45.668;18.980;2022-09-29T06:50:11;18.88;;;14.93;;
55053;SDS011;40954;45.668;18.980;2022-09-29T06:52:37;15.80;;;13.63;;
55053;SDS011;40954;45.668;18.980;2022-09-29T06:55:03;26.08;;;14.77;;
55053;SDS011;40954;45.668;18.980;2022-09-29T06:57:29;14.77;;;12.95;;
55053;SDS011;40954;45.668;18.980;2022-09-29T06:59:55;17.00;;;13.73;;
55053;SDS011;40954;45.668;18.980;2022-09-29T07:02:21;20.48;;;14.55;;
55053;SDS011;40954;45.668;18.980;2022-09-29T07:04:47;18.83;;;13.30;;
55053;SDS011;40954;45.668;18.980;2022-09-29T07:07:14;19.13;;;14.75;;
55053;SDS011;40954;45.668;18.980;2022-09-29T07:09:40;15.73;;;13.27;;
55053;SDS011;40954;45.668;18.980;2022-09-29T07:12:06;19.52;;;13.93;;
55053;SDS011;40954;45.668;18.980;2022-09-29T07:14:32;19.10;;;13.63;;
55053;SDS011;40954;45.668;18.980;2022-09-29T07:16:58;20.92;;;13.38;;
55053;SDS011;40954;45.668;18.980;2022-09-29T07:19:25;17.55;;;13.30;;
55053;SDS011;40954;45.668;18.980;2022-09-29T07:21:51;19.67;;;13.82;;
55053;SDS011;40954;45.668;18.980;2022-09-29T07:24:17;17.83;;;12.75;;
55053;SDS011;40954;45.668;18.980;2022-09-29T07:26:43;16.17;;;13.10;;
55053;SDS011;40954;45.668;18.980;2022-09-29T07:29:09;15.73;;;13.27;;
55053;SDS011;40954;45.668;18.980;2022-09-29T07:31:36;18.48;;;14.10;;
55053;SDS011;40954;45.668;18.980;2022-09-29T07:34:02;16.95;;;13.50;;
55053;SDS011;40954;45.668;18.980;2022-09-29T07:36:28;14.70;;;13.10;;
55053;SDS011;40954;45.668;18.980;2022-09-29T07:38:54;15.27;;;11.55;;
55053;SDS011;40954;45.668;18.980;2022-09-29T07:41:20;15.50;;;12.27;;
55053;SDS011;40954;45.668;18.980;2022-09-29T07:43:47;14.95;;;11.10;;
55053;SDS011;40954;45.668;18.980;2022-09-29T07:46:13;14.98;;;12.20;;
55053;SDS011;40954;45.668;18.980;2022-09-29T07:48:39;15.57;;;10.52;;
55053;SDS011;40954;45.668;18.980;2022-09-29T07:53:31;12.48;;;10.15;;
55053;SDS011;40954;45.668;18.980;2022-09-29T07:56:04;11.73;;;8.77;;
55053;SDS011;40954;45.668;18.980;2022-09-29T07:58:31;12.55;;;8.43;;
55053;SDS011;40954;45.668;18.980;2022-09-29T08:00:57;11.48;;;8.45;;
55053;SDS011;40954;45.668;18.980;2022-09-29T08:03:23;10.90;;;9.50;;
55053;SDS011;40954;45.668;18.980;2022-09-29T08:05:50;13.63;;;9.93;;
55053;SDS011;40954;45.668;18.980;2022-09-29T08:08:17;14.13;;;9.35;;
55053;SDS011;40954;45.668;18.980;2022-09-29T08:10:43;12.40;;;9.50;;
55053;SDS011;40954;45.668;18.980;2022-09-29T08:13:09;15.35;;;9.05;;
55053;SDS011;40954;45.668;18.980;2022-09-29T08:15:35;9.85;;;8.00;;
55053;SDS011;40954;45.668;18.980;2022-09-29T08:18:01;8.93;;;7.70;;
55053;SDS011;40954;45.668;18.980;2022-09-29T08:20:27;10.18;;;8.38;;
55053;SDS011;40954;45.668;18.980;2022-09-29T08:22:53;11.95;;;8.88;;
55053;SDS011;40954;45.668;18.980;2022-09-29T08:25:20;12.10;;;7.85;;
55053;SDS011;40954;45.668;18.980;2022-09-29T08:27:49;12.32;;;8.55;;
55053;SDS011;40954;45.668;18.980;2022-09-29T08:30:15;12.23;;;8.38;;
55053;SDS011;40954;45.668;18.980;2022-09-29T08:32:41;13.70;;;8.27;;
55053;SDS011;40954;45.668;18.980;2022-09-29T08:35:07;12.90;;;8.60;;
55053;SDS011;40954;45.668;18.980;2022-09-29T08:37:33;12.02;;;8.68;;
55053;SDS011;40954;45.668;18.980;2022-09-29T08:39:59;10.23;;;8.45;;
55053;SDS011;40954;45.668;18.980;2022-09-29T08:45:12;11.02;;;8.07;;
55053;SDS011;40954;45.668;18.980;2022-09-29T08:47:46;11.07;;;8.93;;
55053;SDS011;40954;45.668;18.980;2022-09-29T08:50:16;11.52;;;8.10;;
55053;SDS011;40954;45.668;18.980;2022-09-29T08:52:47;12.77;;;7.88;;
55053;SDS011;40954;45.668;18.980;2022-09-29T08:57:42;13.15;;;8.55;;
55053;SDS011;40954;45.668;18.980;2022-09-29T09:00:09;16.08;;;8.55;;
55053;SDS011;40954;45.668;18.980;2022-09-29T09:08:01;10.48;;;7.78;;
55053;SDS011;40954;45.668;18.980;2022-09-29T09:10:32;14.15;;;8.35;;
55053;SDS011;40954;45.668;18.980;2022-09-29T09:21:09;8.88;;;7.18;;
55053;SDS011;40954;45.668;18.980;2022-09-29T09:23:45;13.30;;;7.72;;
55053;SDS011;40954;45.668;18.980;2022-09-29T09:26:14;11.13;;;8.18;;
55053;SDS011;40954;45.668;18.980;2022-09-29T09:31:12;13.15;;;8.88;;
55053;SDS011;40954;45.668;18.980;2022-09-29T09:33:48;16.60;;;11.20;;
55053;SDS011;40954;45.668;18.980;2022-09-29T09:39:04;7.25;;;5.72;;
55053;SDS011;40954;45.668;18.980;2022-09-29T09:41:32;7.47;;;5.57;;
55053;SDS011;40954;45.668;18.980;2022-09-29T09:44:03;12.52;;;5.43;;
55053;SDS011;40954;45.668;18.980;2022-09-29T09:46:36;7.38;;;5.30;;
55053;SDS011;40954;45.668;18.980;2022-09-29T09:54:08;7.35;;;5.75;;
55053;SDS011;40954;45.668;18.980;2022-09-29T09:59:24;6.97;;;5.38;;
55053;SDS011;40954;45.668;18.980;2022-09-29T10:01:52;10.23;;;5.22;;
55053;SDS011;40954;45.668;18.980;2022-09-29T10:04:18;10.75;;;6.10;;
55053;SDS011;40954;45.668;18.980;2022-09-29T10:06:44;7.22;;;5.40;;
55053;SDS011;40954;45.668;18.980;2022-09-29T10:09:13;10.23;;;4.93;;
55053;SDS011;40954;45.668;18.980;2022-09-29T10:11:40;8.68;;;5.03;;
55053;SDS011;40954;45.668;18.980;2022-09-29T10:16:44;7.50;;;4.95;;
55053;SDS011;40954;45.668;18.980;2022-09-29T10:19:11;6.53;;;3.85;;
55053;SDS011;40954;45.668;18.980;2022-09-29T10:21:39;4.85;;;3.67;;
55053;SDS011;40954;45.668;18.980;2022-09-29T10:24:18;7.30;;;4.50;;
55053;SDS011;40954;45.668;18.980;2022-09-29T10:26:45;7.63;;;4.50;;
55053;SDS011;40954;45.668;18.980;2022-09-29T10:31:41;4.93;;;3.80;;
55053;SDS011;40954;45.668;18.980;2022-09-29T10:42:02;4.78;;;3.05;;
55053;SDS011;40954;45.668;18.980;2022-09-29T10:44:30;4.85;;;3.17;;
55053;SDS011;40954;45.668;18.980;2022-09-29T10:46:57;5.90;;;3.90;;
55053;SDS011;40954;45.668;18.980;2022-09-29T10:49:26;6.22;;;3.20;;
55053;SDS011;40954;45.668;18.980;2022-09-29T10:52:03;3.95;;;2.97;;
55053;SDS011;40954;45.668;18.980;2022-09-29T10:54:32;6.97;;;3.30;;
55053;SDS011;40954;45.668;18.980;2022-09-29T10:56:59;4.53;;;3.35;;
55053;SDS011;40954;45.668;18.980;2022-09-29T10:59:25;5.53;;;3.17;;
55053;SDS011;40954;45.668;18.980;2022-09-29T11:01:56;5.45;;;2.85;;
55053;SDS011;40954;45.668;18.980;2022-09-29T11:04:30;4.78;;;3.05;;
55053;SDS011;40954;45.668;18.980;2022-09-29T11:07:07;6.32;;;2.83;;
55053;SDS011;40954;45.668;18.980;2022-09-29T11:09:38;4.78;;;2.90;;
55053;SDS011;40954;45.668;18.980;2022-09-29T11:12:05;4.38;;;2.88;;
55053;SDS011;40954;45.668;18.980;2022-09-29T11:14:38;7.43;;;3.92;;
55053;SDS011;40954;45.668;18.980;2022-09-29T11:17:48;5.93;;;2.97;;
55053;SDS011;40954;45.668;18.980;2022-09-29T11:19:58;3.92;;;3.10;;
55053;SDS011;40954;45.668;18.980;2022-09-29T11:35:44;3.15;;;2.80;;
55053;SDS011;40954;45.668;18.980;2022-09-29T11:43:49;4.82;;;2.92;;
55053;SDS011;40954;45.668;18.980;2022-09-29T11:46:34;2.38;;;2.05;;
55053;SDS011;40954;45.668;18.980;2022-09-29T12:10:24;26.20;;;15.98;;
55053;SDS011;40954;45.668;18.980;2022-09-29T12:13:39;14.57;;;7.80;;
55053;SDS011;40954;45.668;18.980;2022-09-29T12:15:48;15.52;;;8.15;;
55053;SDS011;40954;45.668;18.980;2022-09-29T12:18:20;11.80;;;6.68;;
55053;SDS011;40954;45.668;18.980;2022-09-29T12:20:49;2.75;;;2.55;;
55053;SDS011;40954;45.668;18.980;2022-09-29T12:23:17;8.43;;;2.85;;
55053;SDS011;40954;45.668;18.980;2022-09-29T12:25:57;3.15;;;2.15;;
55053;SDS011;40954;45.668;18.980;2022-09-29T12:29:07;2.35;;;2.15;;
55053;SDS011;40954;45.668;18.980;2022-09-29T12:31:24;2.70;;;2.05;;
55053;SDS011;40954;45.668;18.980;2022-09-29T12:33:52;3.85;;;2.17;;
55053;SDS011;40954;45.668;18.980;2022-09-29T12:36:25;3.47;;;2.05;;
55053;SDS011;40954;45.668;18.980;2022-09-29T12:41:47;3.40;;;2.25;;
55053;SDS011;40954;45.668;18.980;2022-09-29T12:46:47;2.97;;;2.15;;
55053;SDS011;40954;45.668;18.980;2022-09-29T12:49:21;6.00;;;2.22;;
55053;SDS011;40954;45.668;18.980;2022-09-29T12:51:48;4.82;;;2.58;;
55053;SDS011;40954;45.668;18.980;2022-09-29T12:56:45;3.15;;;2.58;;
55053;SDS011;40954;45.668;18.980;2022-09-29T13:01:39;4.07;;;2.00;;
55053;SDS011;40954;45.668;18.980;2022-09-29T13:04:28;2.20;;;2.00;;
55053;SDS011;40954;45.668;18.980;2022-09-29T13:20:17;3.08;;;2.00;;
55053;SDS011;40954;45.668;18.980;2022-09-29T13:25:53;4.85;;;2.13;;
55053;SDS011;40954;45.668;18.980;2022-09-29T13:28:24;4.18;;;2.40;;
55053;SDS011;40954;45.668;18.980;2022-09-29T13:30:51;4.03;;;1.75;;
55053;SDS011;40954;45.668;18.980;2022-09-29T13:33:19;3.40;;;2.13;;
55053;SDS011;40954;45.668;18.980;2022-09-29T13:35:47;5.95;;;1.92;;
55053;SDS011;40954;45.668;18.980;2022-09-29T13:38:18;3.53;;;1.98;;
55053;SDS011;40954;45.668;18.980;2022-09-29T13:41:31;2.25;;;2.03;;
55053;SDS011;40954;45.668;18.980;2022-09-29T13:56:39;2.55;;;2.30;;
55053;SDS011;40954;45.668;18.980;2022-09-29T13:59:11;5.32;;;2.50;;
55053;SDS011;40954;45.668;18.980;2022-09-29T14:01:39;5.28;;;2.30;;
55053;SDS011;40954;45.668;18.980;2022-09-29T14:06:50;2.85;;;1.98;;
55053;SDS011;40954;45.668;18.980;2022-09-29T14:09:18;5.90;;;2.17;;
55053;SDS011;40954;45.668;18.980;2022-09-29T14:11:50;4.43;;;2.17;;
55053;SDS011;40954;45.668;18.980;2022-09-29T14:14:50;5.30;;;2.55;;
55053;SDS011;40954;45.668;18.980;2022-09-29T14:17:13;7.20;;;2.85;;
55053;SDS011;40954;45.668;18.980;2022-09-29T14:27:42;6.03;;;3.00;;
55053;SDS011;40954;45.668;18.980;2022-09-29T14:30:18;5.25;;;3.00;;
55053;SDS011;40954;45.668;18.980;2022-09-29T14:33:01;4.55;;;3.58;;
55053;SDS011;40954;45.668;18.980;2022-09-29T14:35:34;7.78;;;4.75;;
55053;SDS011;40954;45.668;18.980;2022-09-29T14:38:07;5.13;;;3.22;;
55053;SDS011;40954;45.668;18.980;2022-09-29T14:40:35;3.17;;;2.15;;
55053;SDS011;40954;45.668;18.980;2022-09-29T14:43:07;5.95;;;2.67;;
55053;SDS011;40954;45.668;18.980;2022-09-29T14:45:38;10.55;;;2.42;;
55053;SDS011;40954;45.668;18.980;2022-09-29T14:48:37;5.78;;;2.47;;
55053;SDS011;40954;45.668;18.980;2022-09-29T14:51:29;10.70;;;5.50;;
55053;SDS011;40954;45.668;18.980;2022-09-29T14:54:21;5.25;;;2.92;;
55053;SDS011;40954;45.668;18.980;2022-09-29T15:02:12;3.83;;;1.77;;
55053;SDS011;40954;45.668;18.980;2022-09-29T15:04:41;4.38;;;2.10;;
55053;SDS011;40954;45.668;18.980;2022-09-29T15:07:12;2.92;;;1.88;;
55053;SDS011;40954;45.668;18.980;2022-09-29T15:09:38;6.35;;;3.72;;
55053;SDS011;40954;45.668;18.980;2022-09-29T15:12:13;6.95;;;2.85;;
55053;SDS011;40954;45.668;18.980;2022-09-29T15:14:39;6.13;;;3.30;;
55053;SDS011;40954;45.668;18.980;2022-09-29T15:19:45;7.70;;;2.75;;
55053;SDS011;40954;45.668;18.980;2022-09-29T15:27:41;6.90;;;3.50;;
55053;SDS011;40954;45.668;18.980;2022-09-29T15:30:14;8.30;;;3.33;;
55053;SDS011;40954;45.668;18.980;2022-09-29T15:32:41;5.80;;;2.60;;
55053;SDS011;40954;45.668;18.980;2022-09-29T15:35:10;2.70;;;2.08;;
55053;SDS011;40954;45.668;18.980;2022-09-29T15:40:14;4.70;;;2.83;;
55053;SDS011;40954;45.668;18.980;2022-09-29T15:42:40;4.10;;;2.60;;
55053;SDS011;40954;45.668;18.980;2022-09-29T15:45:20;5.05;;;2.72;;
55053;SDS011;40954;45.668;18.980;2022-09-29T15:47:47;5.65;;;3.70;;
55053;SDS011;40954;45.668;18.980;2022-09-29T15:50:17;4.65;;;3.50;;
55053;SDS011;40954;45.668;18.980;2022-09-29T15:52:43;3.78;;;3.03;;
55053;SDS011;40954;45.668;18.980;2022-09-29T15:55:31;4.03;;;3.00;;
55053;SDS011;40954;45.668;18.980;2022-09-29T15:57:56;3.00;;;2.70;;
55053;SDS011;40954;45.668;18.980;2022-09-29T16:03:02;4.15;;;3.45;;
55053;SDS011;40954;45.668;18.980;2022-09-29T16:05:29;3.58;;;2.78;;
55053;SDS011;40954;45.668;18.980;2022-09-29T16:10:31;4.40;;;2.67;;
55053;SDS011;40954;45.668;18.980;2022-09-29T16:13:01;4.00;;;2.60;;
55053;SDS011;40954;45.668;18.980;2022-09-29T16:15:36;4.63;;;2.97;;
55053;SDS011;40954;45.668;18.980;2022-09-29T16:18:07;5.82;;;2.40;;
55053;SDS011;40954;45.668;18.980;2022-09-29T16:20:34;5.38;;;3.10;;
55053;SDS011;40954;45.668;18.980;2022-09-29T16:23:18;3.33;;;2.80;;
55053;SDS011;40954;45.668;18.980;2022-09-29T16:25:44;3.13;;;2.40;;
55053;SDS011;40954;45.668;18.980;2022-09-29T16:28:26;4.43;;;3.25;;
55053;SDS011;40954;45.668;18.980;2022-09-29T16:31:00;6.78;;;5.88;;
55053;SDS011;40954;45.668;18.980;2022-09-29T16:33:27;8.52;;;4.68;;
55053;SDS011;40954;45.668;18.980;2022-09-29T16:38:24;5.47;;;4.68;;
55053;SDS011;40954;45.668;18.980;2022-09-29T16:40:52;6.18;;;4.53;;
55053;SDS011;40954;45.668;18.980;2022-09-29T16:43:27;5.95;;;4.60;;
55053;SDS011;40954;45.668;18.980;2022-09-29T16:45:58;8.65;;;5.82;;
55053;SDS011;40954;45.668;18.980;2022-09-29T16:48:24;10.63;;;6.32;;
55053;SDS011;40954;45.668;18.980;2022-09-29T16:50:56;10.90;;;6.85;;
55053;SDS011;40954;45.668;18.980;2022-09-29T16:53:27;15.00;;;8.98;;
55053;SDS011;40954;45.668;18.980;2022-09-29T16:56:05;12.73;;;7.07;;
55053;SDS011;40954;45.668;18.980;2022-09-29T16:58:33;9.68;;;7.45;;
55053;SDS011;40954;45.668;18.980;2022-09-29T17:01:00;7.97;;;5.90;;
55053;SDS011;40954;45.668;18.980;2022-09-29T17:03:27;7.90;;;5.05;;
55053;SDS011;40954;45.668;18.980;2022-09-29T17:05:54;9.25;;;5.50;;
55053;SDS011;40954;45.668;18.980;2022-09-29T17:08:22;5.80;;;4.03;;
55053;SDS011;40954;45.668;18.980;2022-09-29T17:10:49;5.80;;;5.20;;
55053;SDS011;40954;45.668;18.980;2022-09-29T17:13:15;6.82;;;4.95;;
55053;SDS011;40954;45.668;18.980;2022-09-29T17:15:42;7.05;;;4.70;;
55053;SDS011;40954;45.668;18.980;2022-09-29T17:18:09;7.70;;;5.32;;
55053;SDS011;40954;45.668;18.980;2022-09-29T17:20:36;6.50;;;5.50;;
55053;SDS011;40954;45.668;18.980;2022-09-29T17:23:02;8.88;;;5.32;;
55053;SDS011;40954;45.668;18.980;2022-09-29T17:25:29;7.70;;;5.90;;
55053;SDS011;40954;45.668;18.980;2022-09-29T17:27:55;6.22;;;5.35;;
55053;SDS011;40954;45.668;18.980;2022-09-29T17:30:40;8.95;;;6.35;;
55053;SDS011;40954;45.668;18.980;2022-09-29T17:33:08;7.72;;;6.60;;
55053;SDS011;40954;45.668;18.980;2022-09-29T17:35:37;7.82;;;6.72;;
55053;SDS011;40954;45.668;18.980;2022-09-29T17:38:03;10.90;;;7.18;;
55053;SDS011;40954;45.668;18.980;2022-09-29T17:40:34;9.48;;;6.85;;
55053;SDS011;40954;45.668;18.980;2022-09-29T17:43:00;9.20;;;7.30;;
55053;SDS011;40954;45.668;18.980;2022-09-29T17:45:27;11.18;;;7.85;;
55053;SDS011;40954;45.668;18.980;2022-09-29T17:47:54;12.55;;;8.05;;
55053;SDS011;40954;45.668;18.980;2022-09-29T17:50:30;12.35;;;7.05;;
55053;SDS011;40954;45.668;18.980;2022-09-29T17:52:57;9.73;;;6.95;;
55053;SDS011;40954;45.668;18.980;2022-09-29T17:55:24;10.25;;;7.90;;